sensor_id;sensor_type;location;lat;lon;timestamp;pressure;altitude;pressure_sealevel;temperature;humidity
74552;BME280;63025;55.472;38.432;2022-08-21T00:00:10;101121.66;;;15.62;50.87
74552;BME280;63025;55.472;38.432;2022-08-21T00:02:48;101123.53;;;15.61;50.60
74552;BME280;63025;55.472;38.432;2022-08-21T00:05:14;101123.53;;;15.61;50.66
74552;BME280;63025;55.472;38.432;2022-08-21T00:07:41;101121.88;;;15.60;50.54
74552;BME280;63025;55.472;38.432;2022-08-21T00:10:07;101118.97;;;15.62;50.48
74552;BME280;63025;55.472;38.432;2022-08-21T00:12:33;101120.63;;;15.63;50.43
74552;BME280;63025;55.472;38.432;2022-08-21T00:14:58;101126.44;;;15.66;50.63
74552;BME280;63025;55.472;38.432;2022-08-21T00:17:24;101120.78;;;15.68;50.49
74552;BME280;63025;55.472;38.432;2022-08-21T00:19:50;101108.31;;;15.67;50.58
74552;BME280;63025;55.472;38.432;2022-08-21T00:22:16;101120.19;;;15.66;50.81
74552;BME280;63025;55.472;38.432;2022-08-21T00:24:42;101116.44;;;15.67;50.71
74552;BME280;63025;55.472;38.432;2022-08-21T00:27:08;101119.59;;;15.64;50.75
74552;BME280;63025;55.472;38.432;2022-08-21T00:29:34;101122.72;;;15.61;50.95
74552;BME280;63025;55.472;38.432;2022-08-21T00:31:59;101113.13;;;15.58;50.99
74552;BME280;63025;55.472;38.432;2022-08-21T00:34:25;101119.00;;;15.55;50.86
74552;BME280;63025;55.472;38.432;2022-08-21T00:36:51;101115.00;;;15.51;51.02
74552;BME280;63025;55.472;38.432;2022-08-21T00:39:16;101117.31;;;15.48;50.96
74552;BME280;63025;55.472;38.432;2022-08-21T00:41:43;101113.41;;;15.43;51.11
74552;BME280;63025;55.472;38.432;2022-08-21T00:44:11;101115.69;;;15.40;51.21
74552;BME280;63025;55.472;38.432;2022-08-21T00:46:39;101124.66;;;15.40;51.42
74552;BME280;63025;55.472;38.432;2022-08-21T00:49:06;101104.47;;;15.36;51.44
74552;BME280;63025;55.472;38.432;2022-08-21T00:51:39;101119.28;;;15.34;51.33
74552;BME280;63025;55.472;38.432;2022-08-21T00:54:06;101108.22;;;15.29;51.76
74552;BME280;63025;55.472;38.432;2022-08-21T00:56:32;101112.44;;;15.25;51.92
74552;BME280;63025;55.472;38.432;2022-08-21T00:58:59;101109.50;;;15.20;52.25
74552;BME280;63025;55.472;38.432;2022-08-21T01:01:26;101115.81;;;15.14;52.22
74552;BME280;63025;55.472;38.432;2022-08-21T01:03:52;101117.06;;;15.11;51.99
74552;BME280;63025;55.472;38.432;2022-08-21T01:06:18;101111.84;;;15.10;52.34
74552;BME280;63025;55.472;38.432;2022-08-21T01:08:44;101119.13;;;15.09;52.10
74552;BME280;63025;55.472;38.432;2022-08-21T01:11:10;101119.78;;;15.04;52.45
74552;BME280;63025;55.472;38.432;2022-08-21T01:13:36;101120.81;;;15.03;52.35
74552;BME280;63025;55.472;38.432;2022-08-21T01:16:08;101123.31;;;14.98;52.46
74552;BME280;63025;55.472;38.432;2022-08-21T01:18:34;101114.56;;;14.96;52.82
74552;BME280;63025;55.472;38.432;2022-08-21T01:21:05;101124.38;;;14.91;52.67
74552;BME280;63025;55.472;38.432;2022-08-21T01:23:32;101117.72;;;14.87;53.02
74552;BME280;63025;55.472;38.432;2022-08-21T01:25:58;101120.03;;;14.83;52.95
74552;BME280;63025;55.472;38.432;2022-08-21T01:28:23;101115.88;;;14.81;53.12
74552;BME280;63025;55.472;38.432;2022-08-21T01:30:51;101105.28;;;14.73;53.28
74552;BME280;63025;55.472;38.432;2022-08-21T01:33:19;101113.41;;;14.73;53.54
74552;BME280;63025;55.472;38.432;2022-08-21T01:35:46;101112.13;;;14.68;53.53
74552;BME280;63025;55.472;38.432;2022-08-21T01:38:12;101110.47;;;14.67;53.59
74552;BME280;63025;55.472;38.432;2022-08-21T01:40:38;101118.41;;;14.62;53.89
74552;BME280;63025;55.472;38.432;2022-08-21T01:43:04;101110.50;;;14.61;53.69
74552;BME280;63025;55.472;38.432;2022-08-21T01:45:30;101119.63;;;14.60;53.58
74552;BME280;63025;55.472;38.432;2022-08-21T01:47:56;101115.91;;;14.61;53.78
74552;BME280;63025;55.472;38.432;2022-08-21T01:50:22;101126.94;;;14.59;53.83
74552;BME280;63025;55.472;38.432;2022-08-21T01:52:49;101118.19;;;14.57;53.86
74552;BME280;63025;55.472;38.432;2022-08-21T01:55:17;101129.63;;;14.59;53.86
74552;BME280;63025;55.472;38.432;2022-08-21T01:57:44;101125.88;;;14.60;53.67
74552;BME280;63025;55.472;38.432;2022-08-21T02:00:12;101125.69;;;14.62;53.76
74552;BME280;63025;55.472;38.432;2022-08-21T02:02:39;101118.16;;;14.64;53.83
74552;BME280;63025;55.472;38.432;2022-08-21T02:05:05;101124.19;;;14.66;53.97
74552;BME280;63025;55.472;38.432;2022-08-21T02:07:44;101132.94;;;14.75;53.56
74552;BME280;63025;55.472;38.432;2022-08-21T02:10:13;101116.91;;;14.80;53.23
74552;BME280;63025;55.472;38.432;2022-08-21T02:12:39;101122.94;;;14.82;53.20
74552;BME280;63025;55.472;38.432;2022-08-21T02:15:25;101124.16;;;14.86;53.41
74552;BME280;63025;55.472;38.432;2022-08-21T02:17:54;101125.00;;;14.86;53.37
74552;BME280;63025;55.472;38.432;2022-08-21T02:20:25;101129.59;;;14.86;53.51
74552;BME280;63025;55.472;38.432;2022-08-21T02:22:51;101124.16;;;14.86;53.52
74552;BME280;63025;55.472;38.432;2022-08-21T02:25:18;101124.41;;;14.84;53.23
74552;BME280;63025;55.472;38.432;2022-08-21T02:27:45;101125.22;;;14.85;53.43
74552;BME280;63025;55.472;38.432;2022-08-21T02:30:41;101122.50;;;14.85;53.11
74552;BME280;63025;55.472;38.432;2022-08-21T02:33:08;101131.69;;;14.84;52.87
74552;BME280;63025;55.472;38.432;2022-08-21T02:35:35;101127.13;;;14.84;53.16
74552;BME280;63025;55.472;38.432;2022-08-21T02:38:05;101131.47;;;14.85;53.10
74552;BME280;63025;55.472;38.432;2022-08-21T02:40:35;101131.88;;;14.89;53.02
74552;BME280;63025;55.472;38.432;2022-08-21T02:43:04;101140.44;;;14.92;52.85
74552;BME280;63025;55.472;38.432;2022-08-21T02:45:30;101131.06;;;14.95;53.13
74552;BME280;63025;55.472;38.432;2022-08-21T02:48:03;101138.94;;;14.96;52.93
74552;BME280;63025;55.472;38.432;2022-08-21T02:50:32;101131.84;;;14.95;52.86
74552;BME280;63025;55.472;38.432;2022-08-21T02:52:59;101124.16;;;14.99;53.26
74552;BME280;63025;55.472;38.432;2022-08-21T02:55:27;101136.84;;;14.98;53.07
74552;BME280;63025;55.472;38.432;2022-08-21T02:57:55;101129.78;;;14.97;52.98
74552;BME280;63025;55.472;38.432;2022-08-21T03:00:23;101143.09;;;14.99;53.12
74552;BME280;63025;55.472;38.432;2022-08-21T03:02:50;101135.41;;;15.02;52.88
74552;BME280;63025;55.472;38.432;2022-08-21T03:05:17;101146.88;;;15.04;52.90
74552;BME280;63025;55.472;38.432;2022-08-21T03:07:44;101145.16;;;15.10;52.87
74552;BME280;63025;55.472;38.432;2022-08-21T03:10:11;101144.31;;;15.16;52.42
74552;BME280;63025;55.472;38.432;2022-08-21T03:12:37;101142.44;;;15.23;52.57
74552;BME280;63025;55.472;38.432;2022-08-21T03:15:05;101154.47;;;15.27;52.25
74552;BME280;63025;55.472;38.432;2022-08-21T03:17:32;101139.47;;;15.31;52.06
74552;BME280;63025;55.472;38.432;2022-08-21T03:19:58;101138.19;;;15.40;51.72
74552;BME280;63025;55.472;38.432;2022-08-21T03:22:25;101136.69;;;15.51;51.31
74552;BME280;63025;55.472;38.432;2022-08-21T03:24:51;101131.88;;;15.60;51.23
74552;BME280;63025;55.472;38.432;2022-08-21T03:27:17;101133.31;;;15.69;51.40
74552;BME280;63025;55.472;38.432;2022-08-21T03:29:43;101139.09;;;15.79;50.95
74552;BME280;63025;55.472;38.432;2022-08-21T03:32:09;101141.09;;;15.90;50.96
74552;BME280;63025;55.472;38.432;2022-08-21T03:34:38;101147.94;;;15.99;50.55
74552;BME280;63025;55.472;38.432;2022-08-21T03:37:06;101141.66;;;16.05;50.21
74552;BME280;63025;55.472;38.432;2022-08-21T03:39:33;101148.25;;;16.16;50.27
74552;BME280;63025;55.472;38.432;2022-08-21T03:41:59;101152.81;;;16.22;50.10
74552;BME280;63025;55.472;38.432;2022-08-21T03:44:26;101155.25;;;16.30;49.90
74552;BME280;63025;55.472;38.432;2022-08-21T03:46:53;101154.59;;;16.35;49.73
74552;BME280;63025;55.472;38.432;2022-08-21T03:49:19;101154.09;;;16.44;49.41
74552;BME280;63025;55.472;38.432;2022-08-21T03:51:45;101154.22;;;16.56;49.31
74552;BME280;63025;55.472;38.432;2022-08-21T03:54:10;101147.88;;;16.69;49.42
74552;BME280;63025;55.472;38.432;2022-08-21T03:56:36;101152.38;;;16.81;49.05
74552;BME280;63025;55.472;38.432;2022-08-21T03:59:02;101149.28;;;16.96;48.79
74552;BME280;63025;55.472;38.432;2022-08-21T04:01:29;101154.19;;;17.06;48.52
74552;BME280;63025;55.472;38.432;2022-08-21T04:03:55;101151.56;;;17.17;47.62
74552;BME280;63025;55.472;38.432;2022-08-21T04:06:20;101135.56;;;17.28;47.52
74552;BME280;63025;55.472;38.432;2022-08-21T04:08:46;101140.03;;;17.40;47.47
74552;BME280;63025;55.472;38.432;2022-08-21T04:11:12;101135.72;;;17.51;47.26
74552;BME280;63025;55.472;38.432;2022-08-21T04:13:38;101142.50;;;17.60;47.10
74552;BME280;63025;55.472;38.432;2022-08-21T04:16:04;101127.56;;;17.69;46.91
74552;BME280;63025;55.472;38.432;2022-08-21T04:18:30;101127.09;;;17.72;46.79
74552;BME280;63025;55.472;38.432;2022-08-21T04:20:57;101134.84;;;17.87;46.52
74552;BME280;63025;55.472;38.432;2022-08-21T04:23:24;101138.31;;;17.94;46.29
74552;BME280;63025;55.472;38.432;2022-08-21T04:25:52;101139.88;;;18.02;45.93
74552;BME280;63025;55.472;38.432;2022-08-21T04:28:18;101131.38;;;18.10;45.78
74552;BME280;63025;55.472;38.432;2022-08-21T04:30:44;101140.50;;;18.15;45.80
74552;BME280;63025;55.472;38.432;2022-08-21T04:33:10;101137.31;;;18.18;45.92
74552;BME280;63025;55.472;38.432;2022-08-21T04:35:36;101135.56;;;18.24;45.75
74552;BME280;63025;55.472;38.432;2022-08-21T04:38:02;101137.56;;;18.28;45.27
74552;BME280;63025;55.472;38.432;2022-08-21T04:40:28;101132.72;;;18.30;44.75
74552;BME280;63025;55.472;38.432;2022-08-21T04:42:57;101137.00;;;18.38;45.25
74552;BME280;63025;55.472;38.432;2022-08-21T04:45:37;101133.13;;;18.46;45.06
74552;BME280;63025;55.472;38.432;2022-08-21T04:48:05;101145.19;;;18.50;44.67
74552;BME280;63025;55.472;38.432;2022-08-21T04:50:39;101134.41;;;18.43;44.79
74552;BME280;63025;55.472;38.432;2022-08-21T04:53:10;101133.47;;;18.49;45.21
74552;BME280;63025;55.472;38.432;2022-08-21T04:55:38;101134.66;;;18.53;45.06
74552;BME280;63025;55.472;38.432;2022-08-21T04:58:08;101134.56;;;18.60;44.77
74552;BME280;63025;55.472;38.432;2022-08-21T05:00:35;101129.38;;;18.70;45.07
74552;BME280;63025;55.472;38.432;2022-08-21T05:03:02;101134.81;;;18.82;44.18
74552;BME280;63025;55.472;38.432;2022-08-21T05:05:30;101140.50;;;18.92;43.79
74552;BME280;63025;55.472;38.432;2022-08-21T05:07:59;101146.63;;;19.11;43.77
74552;BME280;63025;55.472;38.432;2022-08-21T05:10:27;101145.78;;;19.22;43.72
74552;BME280;63025;55.472;38.432;2022-08-21T05:12:53;101134.34;;;19.20;43.58
74552;BME280;63025;55.472;38.432;2022-08-21T05:15:19;101140.22;;;19.40;43.21
74552;BME280;63025;55.472;38.432;2022-08-21T05:17:45;101135.56;;;19.52;43.25
74552;BME280;63025;55.472;38.432;2022-08-21T05:20:13;101133.41;;;19.66;42.52
74552;BME280;63025;55.472;38.432;2022-08-21T05:22:39;101128.81;;;19.83;42.44
74552;BME280;63025;55.472;38.432;2022-08-21T05:25:07;101135.56;;;19.92;41.86
74552;BME280;63025;55.472;38.432;2022-08-21T05:27:33;101151.53;;;20.00;41.74
74552;BME280;63025;55.472;38.432;2022-08-21T05:29:59;101142.41;;;19.95;41.45
74552;BME280;63025;55.472;38.432;2022-08-21T05:32:24;101139.25;;;19.86;42.03
74552;BME280;63025;55.472;38.432;2022-08-21T05:34:50;101140.03;;;19.70;41.98
74552;BME280;63025;55.472;38.432;2022-08-21T05:37:16;101143.72;;;19.64;42.40
74552;BME280;63025;55.472;38.432;2022-08-21T05:39:42;101136.50;;;19.58;42.77
74552;BME280;63025;55.472;38.432;2022-08-21T05:42:08;101138.66;;;19.56;42.81
74552;BME280;63025;55.472;38.432;2022-08-21T05:44:34;101132.50;;;19.49;42.63
74552;BME280;63025;55.472;38.432;2022-08-21T05:47:07;101135.44;;;19.47;43.05
74552;BME280;63025;55.472;38.432;2022-08-21T05:49:34;101136.66;;;19.51;42.52
74552;BME280;63025;55.472;38.432;2022-08-21T05:52:00;101139.41;;;19.79;42.60
74552;BME280;63025;55.472;38.432;2022-08-21T05:54:27;101139.97;;;20.10;42.16
74552;BME280;63025;55.472;38.432;2022-08-21T05:56:53;101126.09;;;20.28;41.29
74552;BME280;63025;55.472;38.432;2022-08-21T05:59:19;101126.94;;;20.45;40.84
74552;BME280;63025;55.472;38.432;2022-08-21T06:01:45;101125.66;;;20.65;40.44
74552;BME280;63025;55.472;38.432;2022-08-21T06:04:11;101121.63;;;20.89;40.84
74552;BME280;63025;55.472;38.432;2022-08-21T06:06:37;101110.84;;;20.99;40.08
74552;BME280;63025;55.472;38.432;2022-08-21T06:09:04;101126.22;;;21.22;40.01
74552;BME280;63025;55.472;38.432;2022-08-21T06:11:31;101115.75;;;21.36;38.76
74552;BME280;63025;55.472;38.432;2022-08-21T06:13:58;101101.16;;;21.52;38.55
74552;BME280;63025;55.472;38.432;2022-08-21T06:16:25;101113.38;;;21.66;36.91
74552;BME280;63025;55.472;38.432;2022-08-21T06:18:51;101112.66;;;21.76;36.56
74552;BME280;63025;55.472;38.432;2022-08-21T06:21:17;101105.47;;;21.96;37.07
74552;BME280;63025;55.472;38.432;2022-08-21T06:23:43;101117.47;;;22.17;36.37
74552;BME280;63025;55.472;38.432;2022-08-21T06:26:11;101115.09;;;22.26;34.65
74552;BME280;63025;55.472;38.432;2022-08-21T06:28:37;101100.38;;;22.32;34.21
74552;BME280;63025;55.472;38.432;2022-08-21T06:31:15;101102.13;;;22.48;34.85
74552;BME280;63025;55.472;38.432;2022-08-21T06:33:41;101101.69;;;22.61;34.83
74552;BME280;63025;55.472;38.432;2022-08-21T06:36:07;101097.63;;;22.74;34.75
74552;BME280;63025;55.472;38.432;2022-08-21T06:38:33;101100.25;;;22.91;33.68
74552;BME280;63025;55.472;38.432;2022-08-21T06:40:59;101098.38;;;23.01;32.99
74552;BME280;63025;55.472;38.432;2022-08-21T06:43:25;101092.69;;;23.18;33.18
74552;BME280;63025;55.472;38.432;2022-08-21T06:45:51;101099.94;;;23.34;33.05
74552;BME280;63025;55.472;38.432;2022-08-21T06:48:17;101098.31;;;23.43;31.77
74552;BME280;63025;55.472;38.432;2022-08-21T06:50:42;101092.63;;;23.60;32.22
74552;BME280;63025;55.472;38.432;2022-08-21T06:53:10;101098.69;;;23.77;31.40
74552;BME280;63025;55.472;38.432;2022-08-21T06:55:37;101096.50;;;23.79;31.08
74552;BME280;63025;55.472;38.432;2022-08-21T06:58:04;101096.81;;;23.83;30.36
74552;BME280;63025;55.472;38.432;2022-08-21T07:00:31;101103.38;;;23.77;29.84
74552;BME280;63025;55.472;38.432;2022-08-21T07:02:57;101102.53;;;23.71;28.66
74552;BME280;63025;55.472;38.432;2022-08-21T07:05:28;101097.31;;;23.65;28.66
74552;BME280;63025;55.472;38.432;2022-08-21T07:07:54;101086.09;;;23.76;28.60
74552;BME280;63025;55.472;38.432;2022-08-21T07:10:21;101080.91;;;23.95;28.54
74552;BME280;63025;55.472;38.432;2022-08-21T07:12:47;101096.28;;;24.11;28.69
74552;BME280;63025;55.472;38.432;2022-08-21T07:15:13;101088.06;;;24.22;28.13
74552;BME280;63025;55.472;38.432;2022-08-21T07:17:38;101083.69;;;24.31;28.15
74552;BME280;63025;55.472;38.432;2022-08-21T07:20:05;101082.56;;;24.42;28.25
74552;BME280;63025;55.472;38.432;2022-08-21T07:22:31;101086.41;;;24.56;27.89
74552;BME280;63025;55.472;38.432;2022-08-21T07:24:58;101087.47;;;24.80;27.94
74552;BME280;63025;55.472;38.432;2022-08-21T07:27:23;101091.59;;;24.88;27.31
74552;BME280;63025;55.472;38.432;2022-08-21T07:29:49;101095.72;;;24.75;26.79
74552;BME280;63025;55.472;38.432;2022-08-21T07:32:15;101097.94;;;24.73;26.97
74552;BME280;63025;55.472;38.432;2022-08-21T07:34:41;101095.44;;;24.92;27.04
74552;BME280;63025;55.472;38.432;2022-08-21T07:37:07;101085.22;;;25.08;26.92
74552;BME280;63025;55.472;38.432;2022-08-21T07:39:33;101084.69;;;25.06;26.64
74552;BME280;63025;55.472;38.432;2022-08-21T07:41:58;101079.44;;;25.04;26.45
74552;BME280;63025;55.472;38.432;2022-08-21T07:44:24;101070.28;;;25.29;27.25
74552;BME280;63025;55.472;38.432;2022-08-21T07:46:50;101076.75;;;25.58;27.71
74552;BME280;63025;55.472;38.432;2022-08-21T07:49:15;101076.72;;;25.69;26.51
74552;BME280;63025;55.472;38.432;2022-08-21T07:51:41;101053.00;;;25.73;26.56
74552;BME280;63025;55.472;38.432;2022-08-21T07:54:07;101075.59;;;25.70;25.98
74552;BME280;63025;55.472;38.432;2022-08-21T07:56:33;101076.03;;;25.87;25.95
74552;BME280;63025;55.472;38.432;2022-08-21T07:58:59;101075.41;;;26.00;25.66
74552;BME280;63025;55.472;38.432;2022-08-21T08:01:28;101072.75;;;25.85;25.21
74552;BME280;63025;55.472;38.432;2022-08-21T08:03:54;101063.75;;;25.74;25.57
74552;BME280;63025;55.472;38.432;2022-08-21T08:06:20;101070.09;;;25.70;25.23
74552;BME280;63025;55.472;38.432;2022-08-21T08:08:46;101066.50;;;25.74;25.07
74552;BME280;63025;55.472;38.432;2022-08-21T08:11:12;101052.69;;;25.79;25.60
74552;BME280;63025;55.472;38.432;2022-08-21T08:13:43;101052.53;;;26.00;25.19
74552;BME280;63025;55.472;38.432;2022-08-21T08:16:10;101063.75;;;26.71;24.67
74552;BME280;63025;55.472;38.432;2022-08-21T08:18:36;101054.41;;;26.96;23.56
74552;BME280;63025;55.472;38.432;2022-08-21T08:21:02;101042.44;;;27.86;23.33
74552;BME280;63025;55.472;38.432;2022-08-21T08:23:28;101059.03;;;28.83;22.68
74552;BME280;63025;55.472;38.432;2022-08-21T08:25:56;101051.97;;;29.04;20.82
74552;BME280;63025;55.472;38.432;2022-08-21T08:28:22;101031.44;;;29.05;20.91
74552;BME280;63025;55.472;38.432;2022-08-21T08:30:47;101038.81;;;28.36;20.87
74552;BME280;63025;55.472;38.432;2022-08-21T08:33:15;101027.41;;;27.92;21.41
74552;BME280;63025;55.472;38.432;2022-08-21T08:35:45;101027.91;;;27.61;21.94
74552;BME280;63025;55.472;38.432;2022-08-21T08:38:11;101022.22;;;27.71;22.26
74552;BME280;63025;55.472;38.432;2022-08-21T08:43:29;101021.06;;;29.11;20.66
74552;BME280;63025;55.472;38.432;2022-08-21T08:45:57;101013.88;;;29.73;20.46
74552;BME280;63025;55.472;38.432;2022-08-21T08:51:03;101018.47;;;30.22;19.09
74552;BME280;63025;55.472;38.432;2022-08-21T08:53:34;101012.78;;;30.89;18.77
74552;BME280;63025;55.472;38.432;2022-08-21T08:56:03;101013.44;;;31.86;19.10
74552;BME280;63025;55.472;38.432;2022-08-21T08:58:33;101014.56;;;32.66;17.98
74552;BME280;63025;55.472;38.432;2022-08-21T09:01:01;101018.78;;;33.40;17.59
74552;BME280;63025;55.472;38.432;2022-08-21T09:03:28;101001.63;;;33.71;17.19
74552;BME280;63025;55.472;38.432;2022-08-21T09:12:12;101019.56;;;32.81;17.04
74552;BME280;63025;55.472;38.432;2022-08-21T09:23:25;101019.16;;;31.81;16.94
74552;BME280;63025;55.472;38.432;2022-08-21T09:26:11;101010.66;;;30.95;18.04
74552;BME280;63025;55.472;38.432;2022-08-21T09:28:37;101020.94;;;30.02;19.16
74552;BME280;63025;55.472;38.432;2022-08-21T09:31:31;101029.72;;;29.95;19.42
74552;BME280;63025;55.472;38.432;2022-08-21T09:34:08;101018.00;;;30.20;19.43
74552;BME280;63025;55.472;38.432;2022-08-21T09:36:44;101019.44;;;29.96;19.48
74552;BME280;63025;55.472;38.432;2022-08-21T09:39:13;101005.03;;;29.93;19.22
74552;BME280;63025;55.472;38.432;2022-08-21T09:41:39;101012.78;;;29.61;19.69
74552;BME280;63025;55.472;38.432;2022-08-21T09:44:08;101020.84;;;29.21;20.19
74552;BME280;63025;55.472;38.432;2022-08-21T09:46:34;101021.72;;;28.94;20.18
74552;BME280;63025;55.472;38.432;2022-08-21T09:49:03;101013.34;;;28.67;20.07
74552;BME280;63025;55.472;38.432;2022-08-21T09:51:31;101018.25;;;28.10;20.66
74552;BME280;63025;55.472;38.432;2022-08-21T09:56:36;101021.91;;;27.92;21.22
74552;BME280;63025;55.472;38.432;2022-08-21T09:59:29;101027.03;;;27.98;21.17
74552;BME280;63025;55.472;38.432;2022-08-21T10:02:02;101028.00;;;27.89;21.26
74552;BME280;63025;55.472;38.432;2022-08-21T10:04:32;101030.34;;;28.14;21.88
74552;BME280;63025;55.472;38.432;2022-08-21T10:07:10;101026.84;;;28.08;21.38
74552;BME280;63025;55.472;38.432;2022-08-21T10:09:36;101031.94;;;28.20;22.00
74552;BME280;63025;55.472;38.432;2022-08-21T10:14:44;101033.97;;;28.61;21.71
74552;BME280;63025;55.472;38.432;2022-08-21T10:22:36;101018.31;;;29.11;20.62
74552;BME280;63025;55.472;38.432;2022-08-21T10:25:23;101019.84;;;29.03;21.18
74552;BME280;63025;55.472;38.432;2022-08-21T10:31:07;100999.88;;;28.19;21.71
74552;BME280;63025;55.472;38.432;2022-08-21T10:34:13;100992.91;;;27.89;22.17
74552;BME280;63025;55.472;38.432;2022-08-21T10:39:37;101000.16;;;27.85;22.22
74552;BME280;63025;55.472;38.432;2022-08-21T10:47:42;100994.34;;;27.49;22.49
74552;BME280;63025;55.472;38.432;2022-08-21T10:50:23;100998.22;;;27.86;22.77
74552;BME280;63025;55.472;38.432;2022-08-21T10:53:16;100990.41;;;28.06;22.49
74552;BME280;63025;55.472;38.432;2022-08-21T10:55:52;100990.47;;;28.20;22.45
74552;BME280;63025;55.472;38.432;2022-08-21T10:58:48;100988.56;;;28.02;22.51
74552;BME280;63025;55.472;38.432;2022-08-21T11:01:24;100993.81;;;27.85;22.72
74552;BME280;63025;55.472;38.432;2022-08-21T11:04:54;100994.59;;;27.71;23.25
74552;BME280;63025;55.472;38.432;2022-08-21T11:07:02;100990.00;;;27.43;22.79
74552;BME280;63025;55.472;38.432;2022-08-21T11:09:29;100990.09;;;27.38;23.33
74552;BME280;63025;55.472;38.432;2022-08-21T11:12:18;100996.16;;;27.40;23.65
74552;BME280;63025;55.472;38.432;2022-08-21T11:14:58;100997.25;;;27.39;23.82
74552;BME280;63025;55.472;38.432;2022-08-21T11:17:43;100989.56;;;27.17;23.72
74552;BME280;63025;55.472;38.432;2022-08-21T11:20:30;100997.53;;;27.19;23.74
74552;BME280;63025;55.472;38.432;2022-08-21T11:23:09;100990.66;;;26.97;23.80
74552;BME280;63025;55.472;38.432;2022-08-21T11:25:41;100992.88;;;26.95;23.56
74552;BME280;63025;55.472;38.432;2022-08-21T11:28:23;100986.94;;;26.83;24.33
74552;BME280;63025;55.472;38.432;2022-08-21T11:39:43;100993.16;;;26.70;25.08
74552;BME280;63025;55.472;38.432;2022-08-21T11:45:16;100986.63;;;26.61;25.13
74552;BME280;63025;55.472;38.432;2022-08-21T11:47:51;100987.22;;;26.58;25.10
74552;BME280;63025;55.472;38.432;2022-08-21T11:50:27;100980.84;;;26.62;25.33
74552;BME280;63025;55.472;38.432;2022-08-21T11:55:36;100977.81;;;26.59;25.86
74552;BME280;63025;55.472;38.432;2022-08-21T11:58:09;100973.97;;;26.60;25.81
74552;BME280;63025;55.472;38.432;2022-08-21T12:00:49;100975.59;;;26.61;25.81
74552;BME280;63025;55.472;38.432;2022-08-21T12:03:38;100982.47;;;26.63;25.60
74552;BME280;63025;55.472;38.432;2022-08-21T12:06:13;100966.09;;;26.72;25.64
74552;BME280;63025;55.472;38.432;2022-08-21T12:08:40;100965.97;;;26.82;25.79
74552;BME280;63025;55.472;38.432;2022-08-21T12:11:21;100975.22;;;26.96;25.45
74552;BME280;63025;55.472;38.432;2022-08-21T12:14:15;100970.91;;;27.09;25.76
74552;BME280;63025;55.472;38.432;2022-08-21T12:16:47;100976.56;;;27.18;25.41
74552;BME280;63025;55.472;38.432;2022-08-21T12:21:57;100967.16;;;27.75;24.79
74552;BME280;63025;55.472;38.432;2022-08-21T12:26:59;100959.47;;;28.78;24.21
74552;BME280;63025;55.472;38.432;2022-08-21T12:29:33;100957.06;;;29.26;23.69
74552;BME280;63025;55.472;38.432;2022-08-21T12:34:45;100950.09;;;29.15;23.22
74552;BME280;63025;55.472;38.432;2022-08-21T12:39:58;100956.91;;;28.68;23.67
74552;BME280;63025;55.472;38.432;2022-08-21T12:42:41;100946.88;;;28.72;23.58
74552;BME280;63025;55.472;38.432;2022-08-21T12:45:37;100942.72;;;29.10;23.71
74552;BME280;63025;55.472;38.432;2022-08-21T12:48:20;100938.00;;;29.11;23.33
74552;BME280;63025;55.472;38.432;2022-08-21T12:50:51;100933.75;;;28.91;23.29
74552;BME280;63025;55.472;38.432;2022-08-21T12:53:28;100934.34;;;28.88;23.41
74552;BME280;63025;55.472;38.432;2022-08-21T12:55:54;100940.28;;;28.68;23.39
74552;BME280;63025;55.472;38.432;2022-08-21T12:58:25;100939.28;;;28.77;23.52
74552;BME280;63025;55.472;38.432;2022-08-21T13:01:06;100936.31;;;28.88;23.13
74552;BME280;63025;55.472;38.432;2022-08-21T13:03:37;100937.34;;;28.78;23.18
74552;BME280;63025;55.472;38.432;2022-08-21T13:06:04;100941.41;;;28.67;23.48
74552;BME280;63025;55.472;38.432;2022-08-21T13:08:33;100938.47;;;28.22;23.38
74552;BME280;63025;55.472;38.432;2022-08-21T13:11:04;100935.09;;;28.06;23.12
74552;BME280;63025;55.472;38.432;2022-08-21T13:13:30;100940.53;;;27.98;23.80
74552;BME280;63025;55.472;38.432;2022-08-21T13:15:59;100939.94;;;28.01;23.63
74552;BME280;63025;55.472;38.432;2022-08-21T13:18:29;100938.16;;;27.91;24.19
74552;BME280;63025;55.472;38.432;2022-08-21T13:21:26;100941.97;;;28.09;24.03
74552;BME280;63025;55.472;38.432;2022-08-21T13:23:53;100933.00;;;28.17;23.43
74552;BME280;63025;55.472;38.432;2022-08-21T13:26:20;100943.78;;;28.32;23.26
74552;BME280;63025;55.472;38.432;2022-08-21T13:28:47;100935.09;;;28.06;23.44
74552;BME280;63025;55.472;38.432;2022-08-21T13:31:19;100953.75;;;28.01;23.20
74552;BME280;63025;55.472;38.432;2022-08-21T13:33:46;100946.22;;;27.88;23.35
74552;BME280;63025;55.472;38.432;2022-08-21T13:36:25;100940.47;;;27.70;23.61
74552;BME280;63025;55.472;38.432;2022-08-21T13:38:51;100941.06;;;27.67;23.79
74552;BME280;63025;55.472;38.432;2022-08-21T13:41:22;100935.16;;;27.55;23.70
74552;BME280;63025;55.472;38.432;2022-08-21T13:43:56;100938.97;;;27.40;24.09
74552;BME280;63025;55.472;38.432;2022-08-21T13:46:23;100941.06;;;27.30;24.00
74552;BME280;63025;55.472;38.432;2022-08-21T13:48:49;100942.94;;;27.16;24.63
74552;BME280;63025;55.472;38.432;2022-08-21T13:51:15;100938.91;;;27.08;24.96
74552;BME280;63025;55.472;38.432;2022-08-21T13:56:06;100933.81;;;26.96;24.93
74552;BME280;63025;55.472;38.432;2022-08-21T13:58:33;100939.34;;;26.96;25.01
74552;BME280;63025;55.472;38.432;2022-08-21T14:01:15;100934.84;;;27.00;24.30